createdAt,value
2022-12-31T10:24:58.016Z,4.50
2022-12-31T10:30:00.734Z,4.70
2022-12-31T10:35:14.006Z,4.90
2022-12-31T10:40:22.969Z,5.20
2022-12-31T10:45:35.228Z,5.50
2022-12-31T10:51:07.695Z,5.80
2022-12-31T10:56:50.482Z,6.20
2022-12-31T11:01:50.538Z,6.70
2022-12-31T11:07:30.358Z,7.10
2022-12-31T11:12:50.629Z,7.40
2022-12-31T11:17:56.762Z,7.80
2022-12-31T11:23:03.832Z,8.40
2022-12-31T11:28:20.591Z,9.00
2022-12-31T11:33:28.147Z,9.50
2022-12-31T11:38:25.970Z,10.20
2022-12-31T11:43:28.071Z,10.90
2022-12-31T11:48:31.357Z,11.50
2022-12-31T11:54:05.170Z,11.90
2022-12-31T11:58:58.846Z,12.50
2022-12-31T12:03:54.241Z,12.60
2022-12-31T12:08:47.882Z,12.40
2022-12-31T12:13:41.392Z,12.40
2022-12-31T12:18:42.156Z,13.20
2022-12-31T12:23:37.687Z,14.00
2022-12-31T12:28:44.475Z,13.70
2022-12-31T12:33:44.625Z,13.20
2022-12-31T12:38:44.996Z,13.70
2022-12-31T12:43:39.243Z,14.30
2022-12-31T12:48:39.164Z,14.90
2022-12-31T12:53:45.417Z,15.20
2022-12-31T12:58:56.901Z,15.50
2022-12-31T13:04:34.671Z,15.80
2022-12-31T13:09:41.204Z,15.90
2022-12-31T13:14:44.947Z,15.80
2022-12-31T13:19:48.581Z,15.60
2022-12-31T13:24:54.269Z,15.70
2022-12-31T13:29:49.645Z,16.00
2022-12-31T13:34:46.662Z,16.40
2022-12-31T13:39:43.415Z,16.70
2022-12-31T13:44:43.324Z,16.40
2022-12-31T13:49:45.505Z,15.20
2022-12-31T13:54:45.254Z,14.80
2022-12-31T13:59:44.295Z,14.10
2022-12-31T14:04:41.772Z,13.40
2022-12-31T14:09:37.875Z,12.90
2022-12-31T14:14:42.401Z,12.50
2022-12-31T14:19:49.338Z,12.30
2022-12-31T14:24:46.106Z,12.10
2022-12-31T14:29:46.164Z,11.80
2022-12-31T14:34:50.958Z,11.60
2022-12-31T14:39:55.856Z,11.30
2022-12-31T14:45:04.299Z,11.00
2022-12-31T14:50:07.589Z,10.80
2022-12-31T14:55:05.023Z,10.50
2022-12-31T15:00:00.040Z,10.20
2022-12-31T15:05:15.616Z,10.10
2022-12-31T15:10:20.240Z,9.80
2022-12-31T15:15:37.857Z,9.60
2022-12-31T15:20:50.246Z,9.50
2022-12-31T15:25:49.691Z,9.40
2022-12-31T15:30:47.536Z,9.30
2022-12-31T15:35:51.291Z,9.00
2022-12-31T15:40:45.771Z,8.80
2022-12-31T15:45:41.389Z,8.70
2022-12-31T15:50:40.605Z,8.50
2022-12-31T15:55:43.008Z,8.20
2022-12-31T16:00:53.860Z,7.90
2022-12-31T16:05:47.480Z,7.80
2022-12-31T16:10:45.658Z,7.60
2022-12-31T16:15:40.252Z,7.50
2022-12-31T16:20:36.048Z,7.40
2022-12-31T16:25:32.852Z,7.30
2022-12-31T16:30:30.584Z,7.10
2022-12-31T16:40:24.234Z,6.80
